sensor_id;sensor_type;location;lat;lon;timestamp;temperature;humidity
2439;DHT22;14509;47.992;7.848;2023-06-01T00:00:16;20.70;37.60
2439;DHT22;14509;47.992;7.848;2023-06-01T00:02:20;20.70;37.60
2439;DHT22;14509;47.992;7.848;2023-06-01T00:04:23;20.70;37.70
2439;DHT22;14509;47.992;7.848;2023-06-01T00:06:30;20.70;37.80
2439;DHT22;14509;47.992;7.848;2023-06-01T00:08:32;20.70;38.00
2439;DHT22;14509;47.992;7.848;2023-06-01T00:10:36;20.70;38.00
2439;DHT22;14509;47.992;7.848;2023-06-01T00:12:38;20.70;38.60
2439;DHT22;14509;47.992;7.848;2023-06-01T00:14:40;20.70;38.00
2439;DHT22;14509;47.992;7.848;2023-06-01T00:16:42;20.70;38.00
2439;DHT22;14509;47.992;7.848;2023-06-01T00:18:46;20.70;38.00
2439;DHT22;14509;47.992;7.848;2023-06-01T00:20:49;20.70;38.00
2439;DHT22;14509;47.992;7.848;2023-06-01T00:22:52;21.10;38.30
2439;DHT22;14509;47.992;7.848;2023-06-01T00:24:55;20.80;37.90
2439;DHT22;14509;47.992;7.848;2023-06-01T00:27:01;20.70;38.10
2439;DHT22;14509;47.992;7.848;2023-06-01T00:29:04;20.70;38.30
2439;DHT22;14509;47.992;7.848;2023-06-01T00:31:06;20.70;38.30
2439;DHT22;14509;47.992;7.848;2023-06-01T00:33:08;20.70;38.50
2439;DHT22;14509;47.992;7.848;2023-06-01T00:35:10;20.70;38.60
2439;DHT22;14509;47.992;7.848;2023-06-01T00:37:12;20.70;38.50
2439;DHT22;14509;47.992;7.848;2023-06-01T00:39:15;20.60;38.60
2439;DHT22;14509;47.992;7.848;2023-06-01T00:41:16;20.60;38.80
2439;DHT22;14509;47.992;7.848;2023-06-01T00:43:20;20.60;39.00
2439;DHT22;14509;47.992;7.848;2023-06-01T00:45:23;20.50;38.90
2439;DHT22;14509;47.992;7.848;2023-06-01T00:47:26;20.50;39.00
2439;DHT22;14509;47.992;7.848;2023-06-01T00:49:28;20.50;39.10
2439;DHT22;14509;47.992;7.848;2023-06-01T00:51:32;20.40;39.00
2439;DHT22;14509;47.992;7.848;2023-06-01T00:53:36;20.40;39.50
2439;DHT22;14509;47.992;7.848;2023-06-01T00:55:39;20.40;39.20
2439;DHT22;14509;47.992;7.848;2023-06-01T00:57:42;20.40;39.20
2439;DHT22;14509;47.992;7.848;2023-06-01T00:59:47;20.50;39.30
2439;DHT22;14509;47.992;7.848;2023-06-01T01:01:49;20.40;39.30
2439;DHT22;14509;47.992;7.848;2023-06-01T01:03:54;20.50;39.30
2439;DHT22;14509;47.992;7.848;2023-06-01T01:06:06;20.50;40.00
2439;DHT22;14509;47.992;7.848;2023-06-01T01:08:31;20.50;39.70
2439;DHT22;14509;47.992;7.848;2023-06-01T01:10:45;20.40;39.50
2439;DHT22;14509;47.992;7.848;2023-06-01T01:13:06;20.10;39.40
2439;DHT22;14509;47.992;7.848;2023-06-01T01:15:26;20.40;39.80
2439;DHT22;14509;47.992;7.848;2023-06-01T01:17:35;20.30;40.00
2439;DHT22;14509;47.992;7.848;2023-06-01T01:19:50;20.30;40.30
2439;DHT22;14509;47.992;7.848;2023-06-01T01:22:03;20.20;40.50
2439;DHT22;14509;47.992;7.848;2023-06-01T01:24:23;20.10;40.90
2439;DHT22;14509;47.992;7.848;2023-06-01T01:26:42;20.10;40.70
2439;DHT22;14509;47.992;7.848;2023-06-01T01:28:52;20.00;41.20
2439;DHT22;14509;47.992;7.848;2023-06-01T01:30:57;20.00;41.30
2439;DHT22;14509;47.992;7.848;2023-06-01T01:33:02;19.90;41.20
2439;DHT22;14509;47.992;7.848;2023-06-01T01:35:05;19.90;41.30
2439;DHT22;14509;47.992;7.848;2023-06-01T01:37:10;19.90;41.60
2439;DHT22;14509;47.992;7.848;2023-06-01T01:39:13;19.90;41.60
2439;DHT22;14509;47.992;7.848;2023-06-01T01:41:15;19.90;41.70
2439;DHT22;14509;47.992;7.848;2023-06-01T01:43:17;19.80;41.60
2439;DHT22;14509;47.992;7.848;2023-06-01T01:45:21;19.80;41.70
2439;DHT22;14509;47.992;7.848;2023-06-01T01:47:30;19.70;41.80
2439;DHT22;14509;47.992;7.848;2023-06-01T01:49:37;19.80;42.20
2439;DHT22;14509;47.992;7.848;2023-06-01T01:51:50;19.70;42.20
2439;DHT22;14509;47.992;7.848;2023-06-01T01:53:55;19.70;42.50
2439;DHT22;14509;47.992;7.848;2023-06-01T01:55:58;19.60;42.90
2439;DHT22;14509;47.992;7.848;2023-06-01T01:58:01;19.50;43.10
2439;DHT22;14509;47.992;7.848;2023-06-01T02:00:06;19.40;43.10
2439;DHT22;14509;47.992;7.848;2023-06-01T02:02:17;19.40;43.20
2439;DHT22;14509;47.992;7.848;2023-06-01T02:04:19;19.40;43.20
2439;DHT22;14509;47.992;7.848;2023-06-01T02:06:21;19.40;43.30
2439;DHT22;14509;47.992;7.848;2023-06-01T02:08:23;19.30;43.20
2439;DHT22;14509;47.992;7.848;2023-06-01T02:10:26;19.40;43.50
2439;DHT22;14509;47.992;7.848;2023-06-01T02:12:28;19.30;43.50
2439;DHT22;14509;47.992;7.848;2023-06-01T02:14:30;19.30;43.50
2439;DHT22;14509;47.992;7.848;2023-06-01T02:16:32;19.20;43.60
2439;DHT22;14509;47.992;7.848;2023-06-01T02:18:35;19.20;43.70
2439;DHT22;14509;47.992;7.848;2023-06-01T02:20:40;19.20;43.70
2439;DHT22;14509;47.992;7.848;2023-06-01T02:22:42;19.20;43.70
2439;DHT22;14509;47.992;7.848;2023-06-01T02:24:44;19.20;43.70
2439;DHT22;14509;47.992;7.848;2023-06-01T02:26:49;19.20;43.60
2439;DHT22;14509;47.992;7.848;2023-06-01T02:28:52;19.10;44.00
2439;DHT22;14509;47.992;7.848;2023-06-01T02:30:54;19.00;44.00
2439;DHT22;14509;47.992;7.848;2023-06-01T02:32:57;19.00;43.90
2439;DHT22;14509;47.992;7.848;2023-06-01T02:35:01;19.10;43.70
2439;DHT22;14509;47.992;7.848;2023-06-01T02:37:03;19.10;43.70
2439;DHT22;14509;47.992;7.848;2023-06-01T02:39:05;19.10;43.60
2439;DHT22;14509;47.992;7.848;2023-06-01T02:41:08;19.20;43.50
2439;DHT22;14509;47.992;7.848;2023-06-01T02:43:10;19.20;43.50
2439;DHT22;14509;47.992;7.848;2023-06-01T02:45:12;19.20;43.40
2439;DHT22;14509;47.992;7.848;2023-06-01T02:47:14;19.20;43.30
2439;DHT22;14509;47.992;7.848;2023-06-01T02:49:17;19.20;43.30
2439;DHT22;14509;47.992;7.848;2023-06-01T02:51:21;19.20;43.20
2439;DHT22;14509;47.992;7.848;2023-06-01T02:53:28;19.30;43.30
2439;DHT22;14509;47.992;7.848;2023-06-01T02:55:30;19.30;43.30
2439;DHT22;14509;47.992;7.848;2023-06-01T02:57:44;19.30;43.20
2439;DHT22;14509;47.992;7.848;2023-06-01T02:59:46;19.30;43.30
2439;DHT22;14509;47.992;7.848;2023-06-01T03:01:48;19.30;43.80
2439;DHT22;14509;47.992;7.848;2023-06-01T03:03:50;19.40;43.30
2439;DHT22;14509;47.992;7.848;2023-06-01T03:05:54;19.40;43.40
2439;DHT22;14509;47.992;7.848;2023-06-01T03:08:22;19.40;43.50
2439;DHT22;14509;47.992;7.848;2023-06-01T03:10:26;19.40;43.50
2439;DHT22;14509;47.992;7.848;2023-06-01T03:12:35;19.40;43.60
2439;DHT22;14509;47.992;7.848;2023-06-01T03:14:37;19.30;43.70
2439;DHT22;14509;47.992;7.848;2023-06-01T03:16:39;19.30;43.90
2439;DHT22;14509;47.992;7.848;2023-06-01T03:18:50;19.30;44.00
2439;DHT22;14509;47.992;7.848;2023-06-01T03:20:52;19.30;44.10
2439;DHT22;14509;47.992;7.848;2023-06-01T03:22:54;19.20;44.20
2439;DHT22;14509;47.992;7.848;2023-06-01T03:24:58;19.20;44.30
2439;DHT22;14509;47.992;7.848;2023-06-01T03:27:04;19.20;44.40
2439;DHT22;14509;47.992;7.848;2023-06-01T03:29:10;19.10;44.50
2439;DHT22;14509;47.992;7.848;2023-06-01T03:31:12;19.10;44.70
2439;DHT22;14509;47.992;7.848;2023-06-01T03:33:14;19.00;44.60
2439;DHT22;14509;47.992;7.848;2023-06-01T03:35:17;19.00;44.70
2439;DHT22;14509;47.992;7.848;2023-06-01T03:37:19;19.00;44.70
2439;DHT22;14509;47.992;7.848;2023-06-01T03:39:22;19.00;44.70
2439;DHT22;14509;47.992;7.848;2023-06-01T03:41:26;19.00;44.80
2439;DHT22;14509;47.992;7.848;2023-06-01T03:43:28;19.00;44.70
2439;DHT22;14509;47.992;7.848;2023-06-01T03:45:30;19.00;44.70
2439;DHT22;14509;47.992;7.848;2023-06-01T03:47:32;19.00;44.70
2439;DHT22;14509;47.992;7.848;2023-06-01T03:49:34;19.10;44.70
2439;DHT22;14509;47.992;7.848;2023-06-01T03:51:40;19.10;44.60
2439;DHT22;14509;47.992;7.848;2023-06-01T03:53:42;19.20;44.70
2439;DHT22;14509;47.992;7.848;2023-06-01T03:55:44;19.20;44.50
2439;DHT22;14509;47.992;7.848;2023-06-01T03:57:59;19.20;44.40
2439;DHT22;14509;47.992;7.848;2023-06-01T04:00:04;19.20;44.40
2439;DHT22;14509;47.992;7.848;2023-06-01T04:02:24;19.20;45.00
2439;DHT22;14509;47.992;7.848;2023-06-01T04:04:28;19.20;44.40
2439;DHT22;14509;47.992;7.848;2023-06-01T04:06:30;19.20;44.40
2439;DHT22;14509;47.992;7.848;2023-06-01T04:08:37;19.20;44.50
2439;DHT22;14509;47.992;7.848;2023-06-01T04:10:43;19.20;44.60
2439;DHT22;14509;47.992;7.848;2023-06-01T04:12:45;19.20;44.60
2439;DHT22;14509;47.992;7.848;2023-06-01T04:14:49;19.20;44.70
2439;DHT22;14509;47.992;7.848;2023-06-01T04:16:51;19.20;44.70
2439;DHT22;14509;47.992;7.848;2023-06-01T04:18:53;19.20;44.80
2439;DHT22;14509;47.992;7.848;2023-06-01T04:20:59;19.20;44.80
2439;DHT22;14509;47.992;7.848;2023-06-01T04:23:01;19.20;45.60
2439;DHT22;14509;47.992;7.848;2023-06-01T04:25:05;19.20;45.00
2439;DHT22;14509;47.992;7.848;2023-06-01T04:27:08;19.20;44.80
2439;DHT22;14509;47.992;7.848;2023-06-01T04:29:10;19.20;43.90
2439;DHT22;14509;47.992;7.848;2023-06-01T04:31:14;19.20;43.70
2439;DHT22;14509;47.992;7.848;2023-06-01T04:33:19;19.10;43.50
2439;DHT22;14509;47.992;7.848;2023-06-01T04:35:22;19.10;43.40
2439;DHT22;14509;47.992;7.848;2023-06-01T04:37:24;19.10;43.40
2439;DHT22;14509;47.992;7.848;2023-06-01T04:39:26;19.10;43.50
2439;DHT22;14509;47.992;7.848;2023-06-01T04:41:33;19.10;43.50
2439;DHT22;14509;47.992;7.848;2023-06-01T04:43:36;19.10;43.60
2439;DHT22;14509;47.992;7.848;2023-06-01T04:45:40;19.20;43.70
2439;DHT22;14509;47.992;7.848;2023-06-01T04:47:44;19.20;43.70
2439;DHT22;14509;47.992;7.848;2023-06-01T04:49:56;19.20;43.70
2439;DHT22;14509;47.992;7.848;2023-06-01T04:51:58;19.30;43.90
2439;DHT22;14509;47.992;7.848;2023-06-01T04:54:01;19.50;44.70
2439;DHT22;14509;47.992;7.848;2023-06-01T04:56:03;19.40;43.90
2439;DHT22;14509;47.992;7.848;2023-06-01T04:58:06;19.40;43.80
2439;DHT22;14509;47.992;7.848;2023-06-01T05:00:09;19.50;43.70
2439;DHT22;14509;47.992;7.848;2023-06-01T05:02:13;19.50;43.60
2439;DHT22;14509;47.992;7.848;2023-06-01T05:04:16;19.60;43.50
2439;DHT22;14509;47.992;7.848;2023-06-01T05:06:19;19.60;43.70
2439;DHT22;14509;47.992;7.848;2023-06-01T05:08:22;19.60;44.10
2439;DHT22;14509;47.992;7.848;2023-06-01T05:10:24;19.60;44.20
2439;DHT22;14509;47.992;7.848;2023-06-01T05:12:26;19.70;44.30
2439;DHT22;14509;47.992;7.848;2023-06-01T05:14:28;19.80;44.40
2439;DHT22;14509;47.992;7.848;2023-06-01T05:16:30;19.80;44.30
2439;DHT22;14509;47.992;7.848;2023-06-01T05:18:33;19.80;44.30
2439;DHT22;14509;47.992;7.848;2023-06-01T05:20:37;19.90;44.30
2439;DHT22;14509;47.992;7.848;2023-06-01T05:22:39;19.90;44.00
2439;DHT22;14509;47.992;7.848;2023-06-01T05:24:41;20.00;43.80
2439;DHT22;14509;47.992;7.848;2023-06-01T05:26:43;20.00;43.60
2439;DHT22;14509;47.992;7.848;2023-06-01T05:28:46;20.10;43.30
2439;DHT22;14509;47.992;7.848;2023-06-01T05:30:48;20.10;43.80
2439;DHT22;14509;47.992;7.848;2023-06-01T05:32:51;20.20;43.00
2439;DHT22;14509;47.992;7.848;2023-06-01T05:34:55;20.20;42.70
2439;DHT22;14509;47.992;7.848;2023-06-01T05:36:59;20.30;42.60
2439;DHT22;14509;47.992;7.848;2023-06-01T05:39:01;20.40;42.30
2439;DHT22;14509;47.992;7.848;2023-06-01T05:41:03;20.40;42.20
2439;DHT22;14509;47.992;7.848;2023-06-01T05:43:05;20.50;42.20
2439;DHT22;14509;47.992;7.848;2023-06-01T05:45:09;20.50;42.30
2439;DHT22;14509;47.992;7.848;2023-06-01T05:47:11;20.60;42.30
2439;DHT22;14509;47.992;7.848;2023-06-01T05:49:13;20.60;42.10
2439;DHT22;14509;47.992;7.848;2023-06-01T05:51:15;20.70;42.00
2439;DHT22;14509;47.992;7.848;2023-06-01T05:53:19;20.50;41.50
2439;DHT22;14509;47.992;7.848;2023-06-01T05:55:24;20.80;41.50
2439;DHT22;14509;47.992;7.848;2023-06-01T05:57:26;20.90;41.50
2439;DHT22;14509;47.992;7.848;2023-06-01T05:59:28;20.90;41.40
2439;DHT22;14509;47.992;7.848;2023-06-01T06:01:31;21.00;41.40
2439;DHT22;14509;47.992;7.848;2023-06-01T06:03:33;21.10;41.60
2439;DHT22;14509;47.992;7.848;2023-06-01T06:05:35;21.20;41.50
2439;DHT22;14509;47.992;7.848;2023-06-01T06:07:37;21.30;41.40
2439;DHT22;14509;47.992;7.848;2023-06-01T06:09:41;21.40;41.30
2439;DHT22;14509;47.992;7.848;2023-06-01T06:11:43;21.40;41.90
2439;DHT22;14509;47.992;7.848;2023-06-01T06:13:46;21.40;40.90
2439;DHT22;14509;47.992;7.848;2023-06-01T06:15:49;21.50;40.60
2439;DHT22;14509;47.992;7.848;2023-06-01T06:17:51;21.50;40.60
2439;DHT22;14509;47.992;7.848;2023-06-01T06:19:53;21.60;40.70
2439;DHT22;14509;47.992;7.848;2023-06-01T06:21:55;21.60;40.60
2439;DHT22;14509;47.992;7.848;2023-06-01T06:23:57;21.60;40.40
2439;DHT22;14509;47.992;7.848;2023-06-01T06:26:01;21.70;40.40
2439;DHT22;14509;47.992;7.848;2023-06-01T06:28:03;21.80;40.40
2439;DHT22;14509;47.992;7.848;2023-06-01T06:30:06;21.80;40.10
2439;DHT22;14509;47.992;7.848;2023-06-01T06:32:09;21.90;40.10
2439;DHT22;14509;47.992;7.848;2023-06-01T06:34:11;22.00;40.30
2439;DHT22;14509;47.992;7.848;2023-06-01T06:36:13;22.00;40.00
2439;DHT22;14509;47.992;7.848;2023-06-01T06:38:15;22.10;40.00
2439;DHT22;14509;47.992;7.848;2023-06-01T06:40:17;22.10;39.90
2439;DHT22;14509;47.992;7.848;2023-06-01T06:42:23;22.20;39.80
2439;DHT22;14509;47.992;7.848;2023-06-01T06:44:26;22.30;39.70
2439;DHT22;14509;47.992;7.848;2023-06-01T06:46:28;22.40;39.50
2439;DHT22;14509;47.992;7.848;2023-06-01T06:48:30;22.40;39.40
2439;DHT22;14509;47.992;7.848;2023-06-01T06:50:32;22.30;39.10
2439;DHT22;14509;47.992;7.848;2023-06-01T06:52:34;22.50;39.00
2439;DHT22;14509;47.992;7.848;2023-06-01T06:54:38;22.60;39.00
2439;DHT22;14509;47.992;7.848;2023-06-01T06:56:40;22.70;39.00
2439;DHT22;14509;47.992;7.848;2023-06-01T06:58:44;22.70;38.80
2439;DHT22;14509;47.992;7.848;2023-06-01T07:00:47;22.80;38.90
2439;DHT22;14509;47.992;7.848;2023-06-01T07:02:49;22.90;38.70
2439;DHT22;14509;47.992;7.848;2023-06-01T07:04:51;23.00;38.40
2439;DHT22;14509;47.992;7.848;2023-06-01T07:06:54;23.00;38.20
2439;DHT22;14509;47.992;7.848;2023-06-01T07:08:56;23.10;38.40
2439;DHT22;14509;47.992;7.848;2023-06-01T07:10:59;23.20;38.30
2439;DHT22;14509;47.992;7.848;2023-06-01T07:13:01;23.20;38.20
2439;DHT22;14509;47.992;7.848;2023-06-01T07:15:05;23.30;37.90
2439;DHT22;14509;47.992;7.848;2023-06-01T07:17:08;23.40;37.90
2439;DHT22;14509;47.992;7.848;2023-06-01T07:19:13;23.40;37.80
2439;DHT22;14509;47.992;7.848;2023-06-01T07:21:15;23.50;37.80
2439;DHT22;14509;47.992;7.848;2023-06-01T07:23:17;23.50;37.90
2439;DHT22;14509;47.992;7.848;2023-06-01T07:25:19;23.60;37.80
2439;DHT22;14509;47.992;7.848;2023-06-01T07:27:21;23.60;37.60
2439;DHT22;14509;47.992;7.848;2023-06-01T07:29:24;23.70;37.50
2439;DHT22;14509;47.992;7.848;2023-06-01T07:31:28;23.70;37.40
2439;DHT22;14509;47.992;7.848;2023-06-01T07:33:31;23.80;37.50
2439;DHT22;14509;47.992;7.848;2023-06-01T07:35:34;23.80;37.20
2439;DHT22;14509;47.992;7.848;2023-06-01T07:37:36;23.90;37.30
2439;DHT22;14509;47.992;7.848;2023-06-01T07:39:38;24.00;37.20
2439;DHT22;14509;47.992;7.848;2023-06-01T07:41:41;24.10;37.20
2439;DHT22;14509;47.992;7.848;2023-06-01T07:43:44;24.20;37.00
2439;DHT22;14509;47.992;7.848;2023-06-01T07:45:50;24.30;36.90
2439;DHT22;14509;47.992;7.848;2023-06-01T07:47:54;24.30;36.80
2439;DHT22;14509;47.992;7.848;2023-06-01T07:49:56;24.40;36.90
2439;DHT22;14509;47.992;7.848;2023-06-01T07:51:59;24.40;36.80
2439;DHT22;14509;47.992;7.848;2023-06-01T07:54:01;24.50;36.70
2439;DHT22;14509;47.992;7.848;2023-06-01T07:56:04;24.60;36.60
2439;DHT22;14509;47.992;7.848;2023-06-01T07:58:07;24.60;36.50
2439;DHT22;14509;47.992;7.848;2023-06-01T08:00:10;24.70;36.70
2439;DHT22;14509;47.992;7.848;2023-06-01T08:02:13;24.70;36.70
2439;DHT22;14509;47.992;7.848;2023-06-01T08:04:17;24.80;36.80
2439;DHT22;14509;47.992;7.848;2023-06-01T08:06:21;24.90;36.80
2439;DHT22;14509;47.992;7.848;2023-06-01T08:08:24;25.00;36.70
2439;DHT22;14509;47.992;7.848;2023-06-01T08:10:26;25.00;36.60
2439;DHT22;14509;47.992;7.848;2023-06-01T08:12:28;25.10;37.30
2439;DHT22;14509;47.992;7.848;2023-06-01T08:14:30;25.20;36.70
2439;DHT22;14509;47.992;7.848;2023-06-01T08:16:34;25.30;36.70
2439;DHT22;14509;47.992;7.848;2023-06-01T08:18:36;25.30;36.60
2439;DHT22;14509;47.992;7.848;2023-06-01T08:20:40;25.30;36.50
2439;DHT22;14509;47.992;7.848;2023-06-01T08:22:42;25.30;36.30
2439;DHT22;14509;47.992;7.848;2023-06-01T08:24:44;25.30;36.40
2439;DHT22;14509;47.992;7.848;2023-06-01T08:26:48;25.40;36.60
2439;DHT22;14509;47.992;7.848;2023-06-01T08:28:50;25.50;36.50
2439;DHT22;14509;47.992;7.848;2023-06-01T08:30:53;25.50;36.10
2439;DHT22;14509;47.992;7.848;2023-06-01T08:32:55;25.60;35.70
2439;DHT22;14509;47.992;7.848;2023-06-01T08:34:57;25.80;36.00
2439;DHT22;14509;47.992;7.848;2023-06-01T08:37:01;25.80;35.90
2439;DHT22;14509;47.992;7.848;2023-06-01T08:39:21;25.90;36.00
2439;DHT22;14509;47.992;7.848;2023-06-01T08:41:29;26.00;35.50
2439;DHT22;14509;47.992;7.848;2023-06-01T08:43:36;26.00;35.50
2439;DHT22;14509;47.992;7.848;2023-06-01T08:45:40;26.10;35.60
2439;DHT22;14509;47.992;7.848;2023-06-01T08:47:45;26.20;34.90
2439;DHT22;14509;47.992;7.848;2023-06-01T08:49:49;26.30;34.80
2439;DHT22;14509;47.992;7.848;2023-06-01T08:51:54;26.40;35.00
2439;DHT22;14509;47.992;7.848;2023-06-01T08:54:00;26.40;34.90
2439;DHT22;14509;47.992;7.848;2023-06-01T08:56:07;26.50;34.70
2439;DHT22;14509;47.992;7.848;2023-06-01T08:58:10;26.50;34.50
2439;DHT22;14509;47.992;7.848;2023-06-01T09:00:13;26.60;34.40
2439;DHT22;14509;47.992;7.848;2023-06-01T09:02:16;26.60;34.50
2439;DHT22;14509;47.992;7.848;2023-06-01T09:04:18;26.70;34.60
2439;DHT22;14509;47.992;7.848;2023-06-01T09:06:21;26.60;34.20
2439;DHT22;14509;47.992;7.848;2023-06-01T09:08:24;26.80;34.60
2439;DHT22;14509;47.992;7.848;2023-06-01T09:10:28;26.80;34.60
2439;DHT22;14509;47.992;7.848;2023-06-01T09:12:33;26.80;34.70
2439;DHT22;14509;47.992;7.848;2023-06-01T09:14:35;26.80;34.90
2439;DHT22;14509;47.992;7.848;2023-06-01T09:16:38;26.80;35.30
2439;DHT22;14509;47.992;7.848;2023-06-01T09:18:51;26.80;36.10
2439;DHT22;14509;47.992;7.848;2023-06-01T09:20:54;26.90;35.90
2439;DHT22;14509;47.992;7.848;2023-06-01T09:22:58;26.90;35.60
2439;DHT22;14509;47.992;7.848;2023-06-01T09:25:01;27.00;35.60
2439;DHT22;14509;47.992;7.848;2023-06-01T09:27:16;27.10;35.50
2439;DHT22;14509;47.992;7.848;2023-06-01T09:29:18;27.20;35.30
2439;DHT22;14509;47.992;7.848;2023-06-01T09:31:37;27.20;34.40
2439;DHT22;14509;47.992;7.848;2023-06-01T09:33:59;27.30;34.00
2439;DHT22;14509;47.992;7.848;2023-06-01T09:36:01;27.30;33.90
2439;DHT22;14509;47.992;7.848;2023-06-01T09:38:03;27.40;34.20
2439;DHT22;14509;47.992;7.848;2023-06-01T09:40:17;27.60;34.30
2439;DHT22;14509;47.992;7.848;2023-06-01T09:42:32;27.70;34.50
2439;DHT22;14509;47.992;7.848;2023-06-01T09:44:37;27.80;34.10
2439;DHT22;14509;47.992;7.848;2023-06-01T09:46:46;27.90;33.70
2439;DHT22;14509;47.992;7.848;2023-06-01T10:23:02;28.80;31.80
2439;DHT22;14509;47.992;7.848;2023-06-01T10:25:06;29.10;32.20
2439;DHT22;14509;47.992;7.848;2023-06-01T10:27:26;28.90;31.60
2439;DHT22;14509;47.992;7.848;2023-06-01T10:29:31;29.00;31.80
2439;DHT22;14509;47.992;7.848;2023-06-01T10:31:36;29.00;31.70
2439;DHT22;14509;47.992;7.848;2023-06-01T10:33:57;29.10;31.30
2439;DHT22;14509;47.992;7.848;2023-06-01T10:35:59;29.10;31.40
2439;DHT22;14509;47.992;7.848;2023-06-01T10:38:25;29.20;31.50
2439;DHT22;14509;47.992;7.848;2023-06-01T10:40:28;29.30;31.80
2439;DHT22;14509;47.992;7.848;2023-06-01T10:42:42;29.40;31.50
2439;DHT22;14509;47.992;7.848;2023-06-01T10:44:48;29.60;31.50
2439;DHT22;14509;47.992;7.848;2023-06-01T10:46:51;29.60;31.50
2439;DHT22;14509;47.992;7.848;2023-06-01T10:48:54;29.70;30.70
2439;DHT22;14509;47.992;7.848;2023-06-01T10:51:18;29.80;30.80
2439;DHT22;14509;47.992;7.848;2023-06-01T10:53:33;29.90;30.70
2439;DHT22;14509;47.992;7.848;2023-06-01T10:55:37;30.00;31.00
2439;DHT22;14509;47.992;7.848;2023-06-01T10:57:51;30.10;30.00
2439;DHT22;14509;47.992;7.848;2023-06-01T11:00:14;30.00;30.30
2439;DHT22;14509;47.992;7.848;2023-06-01T11:02:17;30.10;30.70
2439;DHT22;14509;47.992;7.848;2023-06-01T11:04:34;30.10;30.80
2439;DHT22;14509;47.992;7.848;2023-06-01T11:06:39;30.20;30.70
2439;DHT22;14509;47.992;7.848;2023-06-01T11:08:54;30.30;30.20
2439;DHT22;14509;47.992;7.848;2023-06-01T11:10:58;30.30;30.00
2439;DHT22;14509;47.992;7.848;2023-06-01T11:13:10;30.40;30.00
2439;DHT22;14509;47.992;7.848;2023-06-01T11:15:13;30.40;29.90
2439;DHT22;14509;47.992;7.848;2023-06-01T11:17:26;30.50;29.90
2439;DHT22;14509;47.992;7.848;2023-06-01T11:19:30;30.50;30.00
2439;DHT22;14509;47.992;7.848;2023-06-01T11:21:38;30.50;30.00
2439;DHT22;14509;47.992;7.848;2023-06-01T11:23:42;30.50;29.60
2439;DHT22;14509;47.992;7.848;2023-06-01T11:25:47;30.50;29.90
2439;DHT22;14509;47.992;7.848;2023-06-01T11:27:50;30.50;29.70
2439;DHT22;14509;47.992;7.848;2023-06-01T11:29:55;30.60;29.70
2439;DHT22;14509;47.992;7.848;2023-06-01T11:32:00;30.70;29.10
2439;DHT22;14509;47.992;7.848;2023-06-01T11:34:03;30.80;29.10
2439;DHT22;14509;47.992;7.848;2023-06-01T11:36:08;30.90;29.00
2439;DHT22;14509;47.992;7.848;2023-06-01T11:38:11;30.90;29.60
2439;DHT22;14509;47.992;7.848;2023-06-01T11:40:14;31.00;29.00
2439;DHT22;14509;47.992;7.848;2023-06-01T11:42:19;31.00;29.10
2439;DHT22;14509;47.992;7.848;2023-06-01T11:44:22;31.00;28.80
2439;DHT22;14509;47.992;7.848;2023-06-01T11:46:25;31.10;29.00
2439;DHT22;14509;47.992;7.848;2023-06-01T11:48:29;31.10;29.40
2439;DHT22;14509;47.992;7.848;2023-06-01T11:50:31;31.10;28.70
2439;DHT22;14509;47.992;7.848;2023-06-01T11:52:35;31.20;28.80
2439;DHT22;14509;47.992;7.848;2023-06-01T11:54:37;31.20;29.20
2439;DHT22;14509;47.992;7.848;2023-06-01T12:01:28;31.30;28.50
2439;DHT22;14509;47.992;7.848;2023-06-01T12:03:32;31.30;28.40
2439;DHT22;14509;47.992;7.848;2023-06-01T12:05:40;31.40;28.10
2439;DHT22;14509;47.992;7.848;2023-06-01T12:07:50;31.40;28.60
2439;DHT22;14509;47.992;7.848;2023-06-01T12:09:55;31.50;28.30
2439;DHT22;14509;47.992;7.848;2023-06-01T12:12:01;31.60;28.10
2439;DHT22;14509;47.992;7.848;2023-06-01T12:14:17;31.60;28.00
2439;DHT22;14509;47.992;7.848;2023-06-01T12:16:20;31.60;28.00
2439;DHT22;14509;47.992;7.848;2023-06-01T12:18:30;31.60;27.80
2439;DHT22;14509;47.992;7.848;2023-06-01T12:20:34;31.60;27.70
2439;DHT22;14509;47.992;7.848;2023-06-01T12:22:40;31.70;27.70
2439;DHT22;14509;47.992;7.848;2023-06-01T12:24:45;31.70;27.60
2439;DHT22;14509;47.992;7.848;2023-06-01T12:26:48;31.70;27.60
2439;DHT22;14509;47.992;7.848;2023-06-01T12:28:53;31.80;27.50
2439;DHT22;14509;47.992;7.848;2023-06-01T12:31:14;31.90;27.10
2439;DHT22;14509;47.992;7.848;2023-06-01T12:33:35;32.00;27.10
2439;DHT22;14509;47.992;7.848;2023-06-01T12:35:48;32.10;27.20
2439;DHT22;14509;47.992;7.848;2023-06-01T12:38:04;32.10;27.20
2439;DHT22;14509;47.992;7.848;2023-06-01T12:40:08;32.20;26.90
2439;DHT22;14509;47.992;7.848;2023-06-01T12:42:11;32.20;26.80
2439;DHT22;14509;47.992;7.848;2023-06-01T12:44:18;32.20;26.90
2439;DHT22;14509;47.992;7.848;2023-06-01T12:46:22;32.20;26.60
2439;DHT22;14509;47.992;7.848;2023-06-01T12:48:31;32.20;26.50
2439;DHT22;14509;47.992;7.848;2023-06-01T12:50:42;32.20;26.20
2439;DHT22;14509;47.992;7.848;2023-06-01T12:52:45;32.20;26.80
2439;DHT22;14509;47.992;7.848;2023-06-01T12:54:47;32.40;26.50
2439;DHT22;14509;47.992;7.848;2023-06-01T12:56:53;32.70;26.10
2439;DHT22;14509;47.992;7.848;2023-06-01T12:58:57;33.00;25.60
2439;DHT22;14509;47.992;7.848;2023-06-01T13:01:00;33.20;25.40
2439;DHT22;14509;47.992;7.848;2023-06-01T13:03:03;33.40;25.10
2439;DHT22;14509;47.992;7.848;2023-06-01T13:05:06;33.70;25.60
2439;DHT22;14509;47.992;7.848;2023-06-01T13:07:11;33.80;25.00
2439;DHT22;14509;47.992;7.848;2023-06-01T13:09:14;34.00;24.70
2439;DHT22;14509;47.992;7.848;2023-06-01T13:11:16;34.20;24.90
2439;DHT22;14509;47.992;7.848;2023-06-01T13:13:18;34.50;24.40
2439;DHT22;14509;47.992;7.848;2023-06-01T13:15:21;34.90;24.20
2439;DHT22;14509;47.992;7.848;2023-06-01T13:17:25;35.40;23.70
2439;DHT22;14509;47.992;7.848;2023-06-01T13:19:29;35.80;22.80
2439;DHT22;14509;47.992;7.848;2023-06-01T13:21:32;36.00;22.80
2439;DHT22;14509;47.992;7.848;2023-06-01T13:23:38;36.40;22.20
2439;DHT22;14509;47.992;7.848;2023-06-01T13:25:40;36.60;22.20
2439;DHT22;14509;47.992;7.848;2023-06-01T13:27:43;36.90;21.90
2439;DHT22;14509;47.992;7.848;2023-06-01T13:29:45;37.30;21.80
2439;DHT22;14509;47.992;7.848;2023-06-01T13:31:47;37.70;21.40
2439;DHT22;14509;47.992;7.848;2023-06-01T13:33:51;38.10;20.90
2439;DHT22;14509;47.992;7.848;2023-06-01T13:35:54;38.50;20.60
2439;DHT22;14509;47.992;7.848;2023-06-01T13:37:58;38.70;20.40
2439;DHT22;14509;47.992;7.848;2023-06-01T13:40:02;38.90;20.40
2439;DHT22;14509;47.992;7.848;2023-06-01T13:42:07;38.90;20.00
2439;DHT22;14509;47.992;7.848;2023-06-01T13:44:09;39.00;20.40
2439;DHT22;14509;47.992;7.848;2023-06-01T13:46:12;38.90;20.00
2439;DHT22;14509;47.992;7.848;2023-06-01T13:48:16;38.90;20.00
2439;DHT22;14509;47.992;7.848;2023-06-01T13:50:18;39.00;20.00
2439;DHT22;14509;47.992;7.848;2023-06-01T13:52:20;39.20;20.00
2439;DHT22;14509;47.992;7.848;2023-06-01T13:54:26;39.50;19.70
2439;DHT22;14509;47.992;7.848;2023-06-01T13:56:30;39.70;19.60
2439;DHT22;14509;47.992;7.848;2023-06-01T13:58:32;39.70;19.50